This is the latest recevied weather packets stored in our database for station/object DL2AKT-13. If no packets are shown the sender has not sent any weather packets the latest 10 day(s).
| Time | Temp. | Humidity | Pressure | Rain* | Wind** | Luminosity | Snow |
|---|---|---|---|---|---|---|---|
| 1778085051 | 13.89° C | 75% | 1003.8 hPa | 0 mm | - | - | - |
| 1778083243 | 13.89° C | 79% | 1003.9 hPa | 0.51 mm | - | - | - |
| 1778082351 | 14.44° C | 79% | 1003.8 hPa | 0.51 mm | - | - | - |
| 1778081438 | 14.44° C | 80% | 1003.7 hPa | 0.51 mm | - | - | - |
| 1778075132 | 16.67° C | 69% | 1003.9 hPa | 0 mm | - | - | - |
| 1778074239 | 16.67° C | 66% | 1003.9 hPa | 0 mm | - | - | - |
| 1778070629 | 17.78° C | 63% | 1004 hPa | 0 mm | - | - | - |
| 1778067929 | 17.78° C | 62% | 1004 hPa | 0 mm | - | - | - |
| 1778057106 | 13.89° C | 79% | 1004.1 hPa | 0 mm | - | - | - |
| 1778035528 | 10.56° C | 92% | 1004.1 hPa | 0 mm | - | - | - |
| 1778031923 | 11.11° C | 92% | 1004.3 hPa | 0 mm | - | - | - |
| 1778013952 | 13.33° C | 90% | 1005 hPa | 9.4 mm | - | - | - |
| 1778010347 | 13.33° C | 88% | 1005.4 hPa | 4.06 mm | - | - | - |
| 1778003140 | 14.44° C | 83% | 1004.9 hPa | 0 mm | - | - | - |
| 1778000438 | 15° C | 82% | 1005.4 hPa | 0 mm | - | - | - |
| 1777995940 | 17.22° C | 75% | 1005.6 hPa | 0 mm | - | - | - |
| 1777995031 | 17.78° C | 75% | 1005.7 hPa | 0 mm | - | - | - |
| 1777986017 | 19.44° C | 71% | 1006.9 hPa | 0 mm | - | - | - |
| 1777985114 | 18.89° C | 72% | 1007.1 hPa | 0 mm | - | - | - |
| 1777983306 | 17.22° C | 77% | 1007.4 hPa | 0 mm | - | - | - |
| 1777977049 | 15° C | 88% | 1008.2 hPa | 0 mm | - | - | - |
| 1777972535 | 13.33° C | 91% | 1008.6 hPa | 0 mm | - | - | - |
| 1777971634 | 12.78° C | 91% | 1008.7 hPa | 0 mm | - | - | - |
| 1777970735 | 12.78° C | 91% | 1008.7 hPa | 0 mm | - | - | - |
| 1777968931 | 12.78° C | 91% | 1008.7 hPa | 0 mm | - | - | - |
* Rain latest hour (hover to see other rain measurements)
** Current wind speed in m/s (hover to see current wind gust speed)